Latest Weather Observations for Cape Naturaliste

IDW60801

Issued at 9:53 pm WST Wednesday 14 April 2021 (issued every 10 minutes, with the page automatically refreshed every 10 minutes)

About weather observations | Map of weather stations | Latest weather observations for WA | Other Formats
Station Details ID: 009519 Name: CAPE NATURALISTE Lat: -33.54 Lon: 115.02 Height: 109.0 m
Data from the previous 72 hours. | See also: Recent months at Cape Naturaliste
Date/Time
WST
Temp
°C
App
Temp
°C
Dew
Point
°C
Rel
Hum
%
Delta-T
°C
Wind Press
QNH
hPa
Press
MSL
hPa
Rain since
9am
mm
Dir  Spd
km/h
Gust
km/h
Spd
kts
Gust
kts
14/09:30pm 15.8 13.9 10.6 71 2.8 SSE 11 15 6 8 1026.7 1026.5 0.0
14/09:00pm 15.7 13.4 10.5 71 2.7 SSE 13 15 7 8 1026.5 1026.3 0.0
14/08:30pm 15.2 12.5 10.2 72 2.6 SSE 15 19 8 10 1026.3 1026.1 0.0
14/08:00pm 15.2 12.0 10.0 71 2.7 SSE 17 20 9 11 1026.3 1026.1 0.0
14/07:30pm 15.7 12.5 9.8 68 3.1 SSE 17 20 9 11 1026.1 1025.9 0.0
14/07:00pm 16.2 13.0 10.1 67 3.2 SSE 17 20 9 11 1026.0 1025.8 0.0
14/06:30pm 16.2 12.6 9.8 66 3.4 SSE 19 22 10 12 1025.7 1025.5 0.0
14/06:00pm 17.1 13.7 9.0 59 4.2 S 17 22 9 12 1025.5 1025.3 0.0
14/05:30pm 17.7 13.6 8.6 55 4.7 SSW 20 32 11 17 1025.2 1025.0 0.0
14/05:00pm 18.3 13.9 9.1 55 4.8 SSW 22 32 12 17 1025.1 1024.9 0.0
14/04:30pm 19.0 14.6 10.3 57 4.7 SSW 24 35 13 19 1025.0 1024.8 0.0
14/04:00pm 19.1 15.5 10.6 58 4.6 SSW 20 35 11 19 1025.2 1025.0 0.0
14/03:30pm 21.1 18.8 13.0 60 4.6 SW 17 24 9 13 1025.2 1025.0 0.0
14/03:00pm 20.8 18.6 13.3 62 4.3 SW 17 22 9 12 1024.9 1024.7 0.0
14/02:30pm 20.2 18.6 13.9 67 3.6 WSW 15 19 8 10 1024.9 1024.7 0.0
14/02:00pm 21.1 19.7 13.3 61 4.5 WSW 13 20 7 11 1025.0 1024.8 0.0
14/01:30pm 21.0 19.8 12.7 59 4.7 WSW 11 19 6 10 1025.2 1025.0 0.0
14/01:00pm 20.3 18.7 12.8 62 4.2 WSW 13 20 7 11 1025.3 1025.1 0.0
14/12:30pm 20.4 19.6 12.9 62 4.3 W 9 17 5 9 1025.6 1025.4 0.0
14/12:00pm 20.3 19.2 13.0 63 4.1 W 11 17 6 9 1025.7 1025.5 0.0
14/11:30am 20.1 19.2 12.6 62 4.2 WSW 9 15 5 8 1026.0 1025.8 0.0
14/11:00am 20.1 19.2 13.6 66 3.7 WNW 11 15 6 8 1026.3 1026.1 0.0
14/10:30am 17.9 16.8 11.9 68 3.3 WNW 9 15 5 8 1026.4 1026.2 0.0
14/10:00am 18.2 17.2 12.4 69 3.2 NW 9 13 5 7 1026.6 1026.4 0.0
14/09:30am 18.2 16.4 12.2 68 3.3 N 13 17 7 9 1026.7 1026.5 0.0
14/09:00am 17.8 16.6 12.7 72 2.8 NNE 11 15 6 8 1026.6 1026.4 0.0
14/08:30am 16.3 15.6 11.9 75 2.4 SSW 7 13 4 7 1026.4 1026.2 0.0
14/08:00am 16.1 15.5 11.7 75 2.4 SW 6 9 3 5 1026.2 1026.0 0.0
14/07:30am 15.0 14.6 11.0 77 2.1 SW 4 11 2 6 1026.0 1025.8 0.0
14/07:00am 14.4 13.4 10.4 77 2.1 ESE 6 7 3 4 1025.8 1025.6 0.0
14/06:30am 13.6 11.9 9.8 78 2.0 ESE 9 9 5 5 1025.6 1025.4 0.0
14/06:00am 13.4 11.3 9.8 79 1.8 SE 11 13 6 7 1025.3 1025.1 0.0
14/05:30am 13.1 11.0 9.7 80 1.7 SE 11 11 6 6 1025.4 1025.2 0.0
14/05:00am 12.2 9.8 8.5 78 1.8 ESE 11 13 6 7 1025.4 1025.2 0.0
14/04:30am 12.4 9.9 8.3 76 2.0 ESE 11 13 6 7 1025.3 1025.1 0.0
14/04:00am 12.3 9.3 7.8 74 2.2 ESE 13 15 7 8 1025.2 1025.0 0.0
14/03:30am 12.5 10.0 8.2 75 2.1 SE 11 13 6 7 1025.3 1025.1 0.0
14/03:00am 12.5 9.5 7.8 73 2.3 SE 13 15 7 8 1025.1 1024.9 0.0
14/02:30am 12.7 9.8 8.2 74 2.2 SE 13 15 7 8 1025.1 1024.9 0.0
14/02:00am 11.8 8.7 7.3 74 2.2 SE 13 15 7 8 1025.1 1024.9 0.0
14/01:30am 11.9 9.3 7.6 75 2.1 SE 11 13 6 7 1025.1 1024.9 0.0
14/01:00am 11.9 8.8 7.4 74 2.2 SE 13 15 7 8 1025.0 1024.8 0.0
14/12:30am 12.4 9.5 8.1 75 2.1 SE 13 15 7 8 1024.9 1024.7 0.0
14/12:00am 12.0 9.0 7.5 74 2.2 SE 13 13 7 7 1024.9 1024.7 0.0
 
Date/Time
WST
Temp
°C
App
Temp
°C
Dew
Point
°C
Rel
Hum
%
Delta-T
°C
Wind Press
QNH
hPa
Press
MSL
hPa
Rain since
9am
mm
Dir  Spd
km/h
Gust
km/h
Spd
kts
Gust
kts
13/11:30pm 12.1 8.6 7.2 72 2.4 SE 15 15 8 8 1024.9 1024.7 0.0
13/11:00pm 12.4 8.6 7.5 72 2.4 SSE 17 17 9 9 1025.1 1024.9 0.0
13/10:30pm 12.4 8.9 7.3 71 2.5 SE 15 17 8 9 1025.1 1024.9 0.0
13/10:00pm 12.8 9.5 7.9 72 2.4 SE 15 17 8 9 1025.0 1024.8 0.0
13/09:30pm 12.4 9.4 7.5 72 2.4 SE 13 13 7 7 1024.9 1024.7 0.0
13/09:00pm 13.0 10.4 7.9 71 2.5 SE 11 13 6 7 1024.7 1024.5 0.0
13/08:30pm 13.8 10.9 8.2 69 2.8 SSE 13 15 7 8 1024.5 1024.3 0.0
13/08:00pm 13.6 10.4 8.4 71 2.6 SE 15 17 8 9 1024.2 1024.0 0.0
13/07:30pm 13.4 9.8 8.3 71 2.6 SSE 17 20 9 11 1024.1 1023.9 0.0
13/07:00pm 13.6 9.9 8.0 69 2.8 SSE 17 20 9 11 1023.7 1023.5 0.0
13/06:30pm 14.6 10.4 8.1 65 3.3 S 20 26 11 14 1023.3 1023.1 0.0
13/06:00pm 15.6 11.5 8.6 63 3.6 S 20 26 11 14 1023.0 1022.8 0.0
13/05:30pm 16.4 11.4 8.1 58 4.2 S 24 30 13 16 1022.6 1022.4 0.0
13/05:00pm 17.5 12.1 7.8 53 4.9 S 26 33 14 18 1022.3 1022.1 0.0
13/04:30pm 18.3 12.9 8.0 51 5.3 SSW 26 35 14 19 1022.2 1022.0 0.0
13/04:00pm 18.9 13.9 9.4 54 5.0 SSW 26 39 14 21 1022.2 1022.0 0.0
13/03:30pm 16.9 11.8 7.5 54 4.7 S 24 35 13 19 1022.1 1021.9 0.0
13/03:00pm 17.3 12.5 9.0 58 4.3 S 24 32 13 17 1022.0 1021.8 0.0
13/02:30pm 16.7 12.7 10.5 67 3.3 S 22 35 12 19 1022.0 1021.8 0.0
13/02:00pm 17.3 12.7 9.7 61 4.0 S 24 33 13 18 1021.8 1021.5 0.0
13/01:30pm 17.5 11.6 8.9 57 4.5 S 30 41 16 22 1021.8 1021.5 0.0
13/01:00pm 19.3 13.8 7.7 47 5.9 SSW 26 39 14 21 1021.6 1021.3 0.0
13/12:30pm 20.3 14.6 8.3 46 6.3 SSW 28 39 15 21 1021.7 1021.4 0.0
13/12:00pm 19.0 12.9 8.4 50 5.5 SSW 30 41 16 22 1021.7 1021.4 0.0
13/11:30am 18.2 11.7 8.2 52 5.2 SSW 32 43 17 23 1021.7 1021.4 0.0
13/11:00am 17.7 13.0 7.7 52 5.1 S 22 35 12 19 1021.7 1021.4 0.0
13/10:30am 18.9 13.9 9.4 54 5.0 S 26 37 14 20 1021.6 1021.3 0.0
13/10:00am 17.9 11.3 8.7 55 4.8 S 33 48 18 26 1021.3 1021.0 0.0
13/09:31am 16.5 10.6 9.2 62 3.8 SSW 30 48 16 26 1021.2 1020.9 0.0
13/09:30am 16.6 10.4 9.3 62 3.8 SSW 32 48 17 26 1021.3 1021.0 0.0
13/09:00am 16.4 10.8 8.6 60 4.0 S 28 43 15 23 1020.9 1020.6 4.4
13/08:30am 16.1 9.7 8.6 61 3.8 SSW 32 43 17 23 1020.4 1020.1 4.4
13/08:01am 15.0 7.8 7.8 62 3.6 SSW 35 54 19 29 1020.0 1019.7 4.4
13/08:00am 15.0 7.4 7.5 61 3.7 SSW 37 54 20 29 1020.0 1019.7 4.4
13/07:30am 15.3 7.3 7.3 59 4.0 SSW 39 52 21 28 1018.8 1018.6 4.4
13/07:00am 14.7 8.2 8.9 68 3.0 SSW 33 48 18 26 1018.5 1018.3 4.4
13/06:49am 14.3 8.7 8.9 70 2.8 SSW 28 46 15 25 1018.4 1018.2 4.4
13/06:30am 14.0 7.9 9.8 76 2.2 SSW 32 44 17 24 1018.2 1018.0 4.4
13/06:00am 13.3 6.7 9.9 80 1.8 SSW 35 48 19 26 1017.9 1017.7 4.4
13/05:30am 14.1 9.0 10.7 80 1.8 S 28 39 15 21 1017.6 1017.4 3.6
13/05:05am 13.2 8.2 10.9 86 1.2 S 28 46 15 25 1017.4 1017.2 3.6
13/05:00am 13.4 9.3 11.3 87 1.1 S 24 46 13 25 1017.4 1017.2 3.6
13/04:30am 12.9 8.3 11.0 88 1.0 SSW 26 33 14 18 1017.3 1017.1 3.6
13/04:00am 13.9 6.7 10.7 81 1.7 SSW 39 59 21 32 1016.8 1016.6 3.4
13/03:52am 15.0 9.0 10.0 72 2.6 SSW 32 50 17 27 1016.8 1016.6 3.2
13/03:30am 14.8 8.4 9.2 69 2.9 SSW 33 46 18 25 1016.7 1016.5 3.2
13/03:00am 14.8 8.8 8.7 67 3.1 SW 30 44 16 24 1016.6 1016.4 3.2
13/02:46am 14.5 7.1 8.5 67 3.0 SSW 37 56 20 30 1016.8 1016.6 3.2
13/02:30am 15.1 8.5 10.1 72 2.6 SSW 35 52 19 28 1016.4 1016.2 3.2
13/02:23am 15.0 9.0 8.5 65 3.3 SSW 30 50 16 27 1016.5 1016.3 3.2
13/02:00am 14.9 8.9 8.6 66 3.2 SSW 30 41 16 22 1016.4 1016.2 3.2
13/01:30am 14.7 8.8 8.9 68 3.0 SSW 30 44 16 24 1016.4 1016.2 3.2
13/01:00am 14.0 7.8 9.4 74 2.4 SSW 32 44 17 24 1016.1 1015.9 3.2
13/12:43am 13.1 7.4 9.9 81 1.7 SSW 30 48 16 26 1016.2 1016.0 3.2
13/12:30am 13.0 7.5 10.7 86 1.2 SSW 30 41 16 22 1016.1 1015.9 3.2
13/12:15am 13.2 8.6 10.9 86 1.2 S 26 48 14 26 1016.2 1016.0 3.2
13/12:00am 13.0 9.7 9.6 80 1.7 S 17 32 9 17 1016.3 1016.1 3.0
 
Date/Time
WST
Temp
°C
App
Temp
°C
Dew
Point
°C
Rel
Hum
%
Delta-T
°C
Wind Press
QNH
hPa
Press
MSL
hPa
Rain since
9am
mm
Dir  Spd
km/h
Gust
km/h
Spd
kts
Gust
kts
12/11:30pm 14.2 7.9 9.8 75 2.3 SSW 33 43 18 23 1016.0 1015.8 2.6
12/11:19pm 13.8 8.6 10.2 79 1.9 SSW 28 43 15 23 1016.0 1015.8 2.6
12/11:00pm 13.3 9.7 9.7 79 1.9 S 19 26 10 14 1016.2 1016.0 2.6
12/10:30pm 14.7 9.2 9.3 70 2.8 SSW 28 41 15 22 1016.1 1015.9 2.6
12/10:00pm 14.2 8.3 7.7 65 3.2 SSW 28 41 15 22 1015.8 1015.6 2.6
12/09:30pm 14.3 7.9 8.5 68 2.9 SSW 32 41 17 22 1015.5 1015.3 2.6
12/09:11pm 14.0 8.0 7.1 63 3.4 SSW 28 46 15 25 1015.5 1015.3 2.6
12/09:00pm 13.8 6.6 7.6 66 3.1 SSW 35 48 19 26 1015.4 1015.2 2.6
12/08:30pm 13.0 7.3 9.8 81 1.6 SSW 30 44 16 24 1015.2 1015.0 2.4
12/08:00pm 12.3 8.0 9.3 82 1.5 S 22 28 12 15 1015.0 1014.8 2.4
12/07:30pm 14.8 9.1 8.5 66 3.2 S 28 46 15 25 1014.4 1014.2 0.8
12/07:00pm 14.9 8.4 8.8 67 3.1 S 33 46 18 25 1014.0 1013.7 0.8
12/06:30pm 15.6 9.1 10.2 70 2.8 SSW 35 46 19 25 1013.3 1013.0 0.8
12/06:19pm 15.2 8.4 9.1 67 3.1 SSW 35 54 19 29 1012.9 1012.6 0.8
12/06:00pm 15.4 9.1 8.9 65 3.3 S 32 43 17 23 1012.7 1012.4 0.8
12/05:30pm 15.5 8.7 9.2 66 3.3 SSW 35 48 19 26 1012.4 1012.1 0.8
12/05:00pm 15.6 9.0 9.9 69 3.0 S 35 54 19 29 1011.7 1011.4 0.8
12/04:58pm 15.6 8.9 9.7 68 3.1 S 35 54 19 29 1011.7 1011.4 0.8
12/04:30pm 15.1 7.9 10.5 74 2.4 SSW 39 52 21 28 1011.1 1010.8 0.8
12/04:05pm 16.6 10.6 10.0 65 3.5 SSW 32 50 17 27 1011.0 1010.7 0.8
12/04:00pm 16.5 9.8 9.7 64 3.6 SSW 35 50 19 27 1010.8 1010.5 0.8
12/03:30pm 17.4 10.9 10.5 64 3.7 SSW 35 52 19 28 1010.4 1010.1 0.8
12/03:06pm 16.8 8.7 10.2 65 3.5 SSW 43 61 23 33 1009.9 1009.6 0.8
12/03:00pm 16.6 8.4 9.8 64 3.6 SSW 43 56 23 30 1009.8 1009.5 0.8
12/02:39pm 18.1 11.1 11.2 64 3.8 SSW 39 57 21 31 1009.3 1009.1 0.8
12/02:30pm 18.9 12.1 11.9 64 3.9 SSW 39 54 21 29 1009.1 1008.9 0.8
12/02:12pm 18.2 11.7 11.7 66 3.6 SSW 37 56 20 30 1009.0 1008.8 0.8
12/02:00pm 18.2 11.1 10.8 62 4.0 SSW 39 56 21 30 1008.8 1008.6 0.8
12/01:30pm 17.3 9.5 11.1 67 3.4 SSW 43 54 23 29 1008.2 1008.0 0.8
12/01:00pm 17.6 11.2 13.1 75 2.5 SSW 39 63 21 34 1008.0 1007.8 0.8
12/12:39pm 17.3 11.7 13.2 77 2.3 S 35 54 19 29 1007.8 1007.6 0.8
12/12:30pm 16.9 11.5 14.0 83 1.7 S 35 46 19 25 1007.8 1007.6 0.8
12/12:01pm 16.6 11.0 14.4 87 1.3 S 37 56 20 30 1007.5 1007.3 0.8
12/12:00pm 16.5 10.5 14.3 87 1.3 S 39 56 21 30 1007.5 1007.3 0.8
12/11:30am 16.1 9.4 14.5 90 0.9 S 43 61 23 33 1007.0 1006.8 0.8
12/11:00am 16.1 8.5 14.6 91 0.9 S 48 69 26 37 1006.5 1006.3 0.8
12/10:30am 17.1 10.2 15.6 91 0.9 SSW 46 69 25 37 1005.9 1005.6 0.4
12/10:00am 17.0 9.7 15.5 91 0.9 S 48 69 26 37 1005.2 1004.9 0.4
12/09:35am 17.2 10.0 15.9 92 0.8 SSW 48 67 26 36 1004.6 1004.3 0.4
12/09:30am 17.1 9.9 15.8 92 0.8 S 48 65 26 35 1004.6 1004.3 0.4
12/09:00am 17.4 9.9 16.1 92 0.8 S 50 70 27 38 1003.9 1003.6 41.8
12/08:32am 17.6 10.2 16.3 92 0.8 SSW 50 69 27 37 1003.1 1002.8 41.4
12/08:30am 17.7 10.0 16.4 92 0.8 SSW 52 69 28 37 1003.2 1002.9 41.4
12/08:05am 17.6 11.0 16.3 92 0.8 SSW 46 65 25 35 1002.4 1002.1 41.4
12/08:00am 17.6 10.7 16.5 93 0.7 S 48 65 26 35 1002.3 1002.0 41.4
12/07:30am 17.8 9.8 16.7 93 0.7 SSW 54 72 29 39 1001.3 1001.0 41.2
12/07:00am 18.3 11.6 17.1 93 0.7 SSW 48 67 26 36 1000.8 1000.5 40.8
12/06:34am 18.3 12.0 17.1 93 0.7 SSW 46 67 25 36 1000.2 999.9 40.2
12/06:30am 18.4 12.7 17.2 93 0.7 SSW 43 59 23 32 1000.2 999.9 40.2
12/06:10am 18.6 15.1 17.4 93 0.7 SSW 32 50 17 27 999.9 999.6 40.0
12/06:00am 18.3 14.7 17.1 93 0.7 S 32 44 17 24 1000.0 999.7 40.0
12/05:30am 17.7 14.6 16.6 93 0.7 S 28 37 15 20 999.6 999.4 39.2
12/05:00am 17.2 13.9 16.1 93 0.7 S 28 35 15 19 999.3 999.1 39.0
12/04:30am 16.9 13.1 15.8 93 0.6 S 30 39 16 21 998.9 998.7 38.8
12/04:00am 16.5 14.1 15.4 93 0.6 S 22 30 12 16 998.9 998.7 38.8
12/03:30am 16.3 14.8 15.2 93 0.6 S 17 24 9 13 999.2 999.0 38.0
12/03:00am 16.1 14.5 15.0 93 0.6 SE 17 22 9 12 999.1 998.9 37.8
12/02:30am 16.1 14.5 15.0 93 0.6 SSE 17 24 9 13 999.7 999.5 36.8
12/02:00am 16.1 14.5 15.0 93 0.6 SE 17 22 9 12 999.7 999.5 36.4
12/01:30am 16.1 14.1 15.0 93 0.6 SE 19 24 10 13 1000.0 999.7 34.8
12/01:00am 16.2 14.1 15.1 93 0.6 SE 20 30 11 16 999.9 999.6 34.2
12/12:30am 16.7 14.4 15.6 93 0.6 ESE 22 28 12 15 1000.4 1000.1 32.8
12/12:00am 17.0 14.8 15.9 93 0.7 E 22 30 12 16 1000.7 1000.4 32.0
 
Date/Time
WST
Temp
°C
App
Temp
°C
Dew
Point
°C
Rel
Hum
%
Delta-T
°C
Wind Press
QNH
hPa
Press
MSL
hPa
Rain since
9am
mm
Dir  Spd
km/h
Gust
km/h
Spd
kts
Gust
kts
11/11:30pm 17.0 14.0 15.9 93 0.7 E 26 32 14 17 1001.2 1000.9 31.4
11/11:00pm 17.0 12.9 15.9 93 0.7 E 32 39 17 21 1001.8 1001.5 30.8
11/10:30pm 16.9 13.1 15.8 93 0.6 ENE 30 35 16 19 1002.5 1002.2 30.0
11/10:00pm 16.7 13.6 15.6 93 0.6 E 26 35 14 19 1003.4 1003.1 29.8

Other formats

Comma delimited format used in spreadsheet applications
http://www.bom.gov.au/fwo/IDW60801/IDW60801.94600.axf

JavaScript Object Notation format (JSON) in row-major order
http://www.bom.gov.au/fwo/IDW60801/IDW60801.94600.json

Data quality

Most of these data are generated automatically and are frequently updated. Quality checks on data are not normally performed. It is possible for incorrect values to appear. Refer to information at About Latest Weather Observations and please check the disclaimer before using these data.